Hébergeur de fichiers indépendant

foulon.gpx

À propos

Type de fichier
Fichier GPX de 100 Ko (application/xml)
Confidentialité
Fichier public, envoyé le 5 juin 2017 à 22:30, depuis l'adresse IP 90.37.x.x (France)
Sécurité
Ne contient aucun Virus ou Malware connus - Dernière vérification: 3 jours
Statistiques
La présente page de téléchargement a été vue 253 fois depuis l'envoi du fichier
Page de téléchargement

Aperçu du fichier


<?xml version="1.0" encoding="UTF-8"?>
<gpx version="1.1" creator="Endomondo.com" xsi:schemaLocation="http://www.topografix.com/GPX/1/1 http://www.topografix.com/GPX/1/1/gpx.xsd http://www.garmin.com/xmlschemas/GpxExtensions/v3 http://www.garmin.com/xmlschemas/GpxExtensionsv3.xsd http://www.garmin.com/xmlschemas/TrackPointExtension/v1 http://www.garmin.com/xmlschemas/TrackPointExtensionv1.xsd" xmlns="http://www.topografix.com/GPX/1/1" xmlns:gpxtpx="http://www.garmin.com/xmlschemas/TrackPointExtension/v1" xmlns:gpxx="http://www.garmin.com/xmlschemas/GpxExtensions/v3" xmlns:xsi="http://www.w3.org/2001/XMLSchema-instance">
  <metadata>
    <author>
      <name>phil good</name>
      <email id="philippelegood" domain="hotmail.fr"/>
    </author>
    <link href="http://www.endomondo.com">
      <text>Endomondo</text>
    </link>
    <time>2015-09-28T07:40:52Z</time>
  </metadata>
  <trk>
    <cmt>canal de foulon</cmt>
    <src>http://www.endomondo.com/</src>
    <link href="https://www.endomondo.com/workouts/608237539/8011448">
      <text>endomondo</text>
    </link>
    <type>HIKING</type>
    <trkseg>
      <trkpt lat="43.720195" lon="6.991394">
        <time>2015-09-26T07:05:19Z</time>
      </trkpt>
      <trkpt lat="43.720195" lon="6.991394">
        <ele>262.09</ele>
        <time>2015-09-26T07:05:21Z</time>
      </trkpt>
      <trkpt lat="43.720366" lon="6.991074">
        <ele>245.264</ele>
        <time>2015-09-26T07:06:24Z</time>
      </trkpt>
      <trkpt lat="43.720428" lon="6.990735">
        <ele>254.208</ele>
        <time>2015-09-26T07:07:54Z</time>
      </trkpt>
      <trkpt lat="43.720509" lon="6.990353">
        <ele>264.604</ele>
        <time>2015-09-26T07:09:25Z</time>
      </trkpt>
      <trkpt lat="43.720554" lon="6.990159">
        <ele>267.15</ele>
        <time>2015-09-26T07:09:41Z</time>
      </trkpt>
      <trkpt lat="43.720558" lon="6.990079">
        <ele>267.737</ele>
        <time>2015-09-26T07:09:48Z</time>
      </trkpt>
      <trkpt lat="43.720564" lon="6.990071">
        <ele>268.378</ele>
        <time>2015-09-26T07:09:57Z</time>
      </trkpt>
      <trkpt lat="43.720366" lon="6.989942">
        <ele>272.133</ele>
        <time>2015-09-26T07:10:31Z</time>
      </trkpt>
      <trkpt lat="43.720254" lon="6.989945">
        <ele>272.987</ele>
        <time>2015-09-26T07:10:47Z</time>
      </trkpt>
      <trkpt lat="43.720082" lon="6.989939">
        <ele>275.048</ele>
        <time>2015-09-26T07:11:01Z</time>
      </trkpt>
      <trkpt lat="43.720045" lon="6.989979">
        <ele>275.596</ele>
        <time>2015-09-26T07:11:07Z</time>
      </trkpt>
      <trkpt lat="43.720051" lon="6.990031">
        <ele>276.787</ele>
        <time>2015-09-26T07:11:16Z</time>
      </trkpt>
      <trkpt lat="43.720232" lon="6.990461">
        <ele>279.389</ele>
        <time>2015-09-26T07:12:20Z</time>
      </trkpt>
      <trkpt lat="43.720073" lon="6.990126">
        <ele>281.175</ele>
        <time>2015-09-26T07:14:10Z</time>
      </trkpt>
      <trkpt lat="43.719902" lon="6.989895">
        <ele>284.626</ele>
        <time>2015-09-26T07:14:36Z</time>
      </trkpt>
      <trkpt lat="43.719874" lon="6.989842">
        <ele>284.519</ele>
        <time>2015-09-26T07:14:43Z</time>
      </trkpt>
      <trkpt lat="43.719809" lon="6.989816">
        <ele>285.342</ele>
        <time>2015-09-26T07:14:58Z</time>
      </trkpt>
      <trkpt lat="43.719514" lon="6.98961">
        <ele>287.117</ele>
        <time>2015-09-26T07:15:45Z</time>
      </trkpt>
      <trkpt lat="43.719239" lon="6.989417">
        <ele>289.409</ele>
        <time>2015-09-26T07:16:16Z</time>
      </trkpt>
      <trkpt lat="43.719145" lon="6.989362">
        <ele>289.152</ele>
        <time>2015-09-26T07:16:22Z</time>
      </trkpt>
      <trkpt lat="43.719058" lon="6.989297">
        <ele>288.763</ele>
        <time>2015-09-26T07:16:30Z</time>
      </trkpt>
      <trkpt lat="43.718929" lon="6.989193">
        <ele>288.306</ele>
        <time>2015-09-26T07:16:49Z</time>
      </trkpt>
      <trkpt lat="43.718808" lon="6.989115">
        <ele>288.066</ele>
        <time>2015-09-26T07:17:01Z</time>
      </trkpt>
      <trkpt lat="43.718703" lon="6.989">
        <ele>287.231</ele>
        <time>2015-09-26T07:17:13Z</time>
      </trkpt>
      <trkpt lat="43.718459" lon="6.988733">
        <ele>283.437</ele>
        <time>2015-09-26T07:19:12Z</time>
      </trkpt>
      <trkpt lat="43.718235" lon="6.988728">
        <ele>282.056</ele>
        <time>2015-09-26T07:19:33Z</time>
      </trkpt>
      <trkpt lat="43.71809" lon="6.988708">
        <ele>281.131</ele>
        <time>2015-09-26T07:19:45Z</time>
      </trkpt>
      <trkpt lat="43.717951" lon="6.988673">
        <ele>280.552</ele>
        <time>2015-09-26T07:20:02Z</time>
      </trkpt>
      <trkpt lat="43.71782" lon="6.988661">
        <ele>281.836</ele>
        <time>2015-09-26T07:20:12Z</time>
      </trkpt>
      <trkpt lat="43.717632" lon="6.988641">
        <ele>285.151</ele>
        <time>2015-09-26T07:20:24Z</time>
      </trkpt>
      <trkpt lat="43.717632" lon="6.988641">
        <ele>285.151</ele>
        <time>2015-09-26T07:20:32Z</time>
      </trkpt>
      <trkpt lat="43.717632" lon="6.988641">
        <ele>285.151</ele>
        <time>2015-09-26T07:20:33Z</time>
      </trkpt>
      <trkpt lat="43.71732" lon="6.988598">
        <ele>286.946</ele>
        <time>2015-09-26T07:21:12Z</time>
      </trkpt>
      <trkpt lat="43.717116" lon="6.988519">
        <ele>287.221</ele>
        <time>2015-09-26T07:21:29Z</time>
      </trkpt>
      <trkpt lat="43.717062" lon="6.988504">
        <ele>287.389</ele>
        <time>2015-09-26T07:21:33Z</time>
      </trkpt>
      <trkpt lat="43.716972" lon="6.988466">
        <ele>287.08</ele>
        <time>2015-09-26T07:21:47Z</time>
      </trkpt>
      <trkpt lat="43.716767" lon="6.988391">
        <ele>287.949</ele>
        <time>2015-09-26T07:22:03Z</time>
      </trkpt>
      <trkpt lat="43.71662" lon="6.988317">
        <ele>289.678</ele>
        <time>2015-09-26T07:22:17Z</time>
      </trkpt>
      <trkpt lat="43.716534" lon="6.988265">
        <ele>290.542</ele>
        <time>2015-09-26T07:22:27Z</time>
      </trkpt>
      <trkpt lat="43.716534" lon="6.988265">
        <ele>290.542</ele>
        <time>2015-09-26T07:22:34Z</time>
      </trkpt>
      <trkpt lat="43.716534" lon="6.988265">
        <ele>290.542</ele>
        <time>2015-09-26T07:22:36Z</time>
      </trkpt>
      <trkpt lat="43.716387" lon="6.988227">
        <ele>291.822</ele>
        <time>2015-09-26T07:23:06Z</time>
      </trkpt>
      <trkpt lat="43.716182" lon="6.988127">
        <ele>292.584</ele>
        <time>2015-09-26T07:23:24Z</time>
      </trkpt>
      <trkpt lat="43.716068" lon="6.988043">
        <ele>294.129</ele>
        <time>2015-09-26T07:23:36Z</time>
      </trkpt>
      <trkpt lat="43.715985" lon="6.987969">
        <ele>295.953</ele>
        <time>2015-09-26T07:23:50Z</time>
      </trkpt>
      <trkpt lat="43.715802" lon="6.987897">
        <ele>296.647</ele>
        <time>2015-09-26T07:24:06Z</time>
      </trkpt>
      <trkpt lat="43.715635" lon="6.987765">
        <ele>296.685</ele>
        <time>2015-09-26T07:24:22Z</time>
      </trkpt>
      <trkpt lat="43.715419" lon="6.987711">
        <ele>297.228</ele>
        <time>2015-09-26T07:24:39Z</time>
      </trkpt>
      <trkpt lat="43.715302" lon="6.98764">
        <ele>297.234</ele>
        <time>2015-09-26T07:24:54Z</time>
      </trkpt>
      <trkpt lat="43.715135" lon="6.987575">
        <ele>296.842</ele>
        <time>2015-09-26T07:25:11Z</time>
      </trkpt>
      <trkpt lat="43.714899" lon="6.987493">
        <ele>298.432</ele>
        <time>2015-09-26T07:25:29Z</time>
      </trkpt>
      <trkpt lat="43.714814" lon="6.987446">
        <ele>298.872</ele>
        <time>2015-09-26T07:25:36Z</time>
      </trkpt>
      <trkpt lat="43.71476" lon="6.987343">
        <ele>299.485</ele>
        <time>2015-09-26T07:25:49Z</time>
      </trkpt>
      <trkpt lat="43.71476" lon="6.987343">
        <ele>299.485</ele>
        <time>2015-09-26T07:25:55Z</time>
      </trkpt>
      <trkpt lat="43.714689" lon="6.987274">
        <ele>299.964</ele>
        <time>2015-09-26T07:26:03Z</time>
      </trkpt>
      <trkpt lat="43.714448" lon="6.987063">
        <ele>299.951</ele>
        <time>2015-09-26T07:26:35Z</time>
      </trkpt>
      <trkpt lat="43.714424" lon="6.987003">
        <ele>300.636</ele>
        <time>2015-09-26T07:26:43Z</time>
      </trkpt>
      <trkpt lat="43.714448" lon="6.987063">
        <ele>299.951</ele>
        <time>2015-09-26T07:26:52Z</time>
      </trkpt>
      <trkpt lat="43.714395" lon="6.986895">
        <ele>300.722</ele>
        <time>2015-09-26T07:27:03Z</time>
      </trkpt>
      <trkpt lat="43.714359" lon="6.98679">
        <ele>300.557</ele>
        <time>2015-09-26T07:27:14Z</time>
      </trkpt>
      <trkpt lat="43.714475" lon="6.986391">
        <ele>301.166</ele>
        <time>2015-09-26T07:28:06Z</time>
      </trkpt>
      <trkpt lat="43.714482" lon="6.986276">
        <ele>302.167</ele>
        <time>2015-09-26T07:28:13Z</time>
      </trkpt>
      <trkpt lat="43.714476" lon="6.986228">
        <ele>302.894</ele>
        <time>2015-09-26T07:28:21Z</time>
      </trkpt>
      <trkpt lat="43.71466" lon="6.986064">
        <ele>320.552</ele>
        <time>2015-09-26T07:29:41Z</time>
      </trkpt>
      <trkpt lat="43.714932" lon="6.986135">
        <ele>325.255</ele>
        <time>2015-09-26T07:30:26Z</time>
      </trkpt>
      <trkpt lat="43.715024" lon="6.986209">
        <ele>327.678</ele>
        <time>2015-09-26T07:30:37Z</time>
      </trkpt>
      <trkpt lat="43.715297" lon="6.986364">
        <ele>335.106</ele>
        <time>2015-09-26T07:31:23Z</time>
      </trkpt>
      <trkpt lat="43.715358" lon="6.986364">
        <ele>336.354</ele>
        <time>2015-09-26T07:31:29Z</time>
      </trkpt>
      <trkpt lat="43.715421" lon="6.986353">
        <ele>337.752</ele>
        <time>2015-09-26T07:31:39Z</time>
      </trkpt>
      <trkpt lat="43.715457" lon="6.98611">
        <ele>347.837</ele>
        <time>2015-09-26T07:32:42Z</time>
      </trkpt>
      <trkpt lat="43.715457" lon="6.98611">
        <ele>347.837</ele>
        <time>2015-09-26T07:34:51Z</time>
      </trkpt>
      <trkpt lat="43.715338" lon="6.9858">
        <ele>367.03</ele>
        <time>2015-09-26T07:35:19Z</time>
      </trkpt>
      <trkpt lat="43.715274" lon="6.985412">
        <ele>370.802</ele>
        <time>2015-09-26T07:36:04Z</time>
      </trkpt>
      <trkpt lat="43.715349" lon="6.985246">
        <ele>373.913</ele>
        <time>2015-09-26T07:36:20Z</time>
      </trkpt>
      <trkpt lat="43.715349" lon="6.985246">
        <ele>373.913</ele>
        <time>2015-09-26T07:36:28Z</time>
      </trkpt>
      <trkpt lat="43.715396" lon="6.98521">
        <ele>374.301</ele>
        <time>2015-09-26T07:36:30Z</time>
      </trkpt>
      <trkpt lat="43.715585" lon="6.984995">
        <ele>382.035</ele>
        <time>2015-09-26T07:38:01Z</time>
      </trkpt>
      <trkpt lat="43.715868" lon="6.984885">
        <ele>392.044</ele>
        <time>2015-09-26T07:39:09Z</time>
      </trkpt>
      <trkpt lat="43.715947" lon="6.984505">
        <ele>402.019</ele>
        <time>2015-09-26T07:40:01Z</time>
      </trkpt>
      <trkpt lat="43.715842" lon="6.984102">
        <ele>410.139</ele>
        <time>2015-09-26T07:40:46Z</time>
      </trkpt>
      <trkpt lat="43.715844" lon="6.98375">
        <ele>413.544</ele>
        <time>2015-09-26T07:41:05Z</time>
      </trkpt>
      <trkpt lat="43.715905" lon="6.983545">
        <ele>415.596</ele>
        <time>2015-09-26T07:41:17Z</time>
      </trkpt>
      <trkpt lat="43.715866" lon="6.983293">
        <ele>418.039</ele>
        <time>2015-09-26T07:41:36Z</time>
      </trkpt>
      <trkpt lat="43.715856" lon="6.983187">
        <ele>418.846</ele>
        <time>2015-09-26T07:41:42Z</time>
      </trkpt>
      <trkpt lat="43.715815" lon="6.983102">
        <ele>422.521</ele>
        <time>2015-09-26T07:41:58Z</time>
      </trkpt>
      <trkpt lat="43.715763" lon="6.982837">
        <ele>426.83</ele>
        <time>2015-09-26T07:42:20Z</time>
      </trkpt>
      <trkpt lat="43.71572" lon="6.982716">
        <ele>428.689</ele>
        <time>2015-09-26T07:42:32Z</time>
      </trkpt>
      <trkpt lat="43.71565" lon="6.982539">
        <ele>429.918</ele>
        <time>2015-09-26T07:42:49Z</time>
      </trkpt>
      <trkpt lat="43.715673" lon="6.982321">
        <ele>430.076</ele>
        <time>2015-09-26T07:43:08Z</time>
      </trkpt>
      <trkpt lat="43.715633" lon="6.982085">
        <ele>431.739</ele>
        <time>2015-09-26T07:43:21Z</time>
      </trkpt>
      <trkpt lat="43.715633" lon="6.982085">
        <ele>431.739</ele>
        <time>2015-09-26T07:43:29Z</time>
      </trkpt>
      <trkpt lat="43.715651" lon="6.981843">
        <ele>435.955</ele>
        <time>2015-09-26T07:43:47Z</time>
      </trkpt>
      <trkpt lat="43.715594" lon="6.981642">
        <ele>437.669</ele>
        <time>2015-09-26T07:44:02Z</time>
      </trkpt>
      <trkpt lat="43.715594" lon="6.981642">
        <ele>437.669</ele>
        <time>2015-09-26T07:44:09Z</time>
      </trkpt>
      <trkpt lat="43.715594" lon="6.981642">
        <ele>437.669</ele>
        <time>2015-09-26T07:44:11Z</time>
      </trkpt>
      <trkpt lat="43.715702" lon="6.981777">
        <ele>442.826</ele>
        <time>2015-09-26T07:44:51Z</time>
      </trkpt>
      <trkpt lat="43.715743" lon="6.981819">
        <ele>443.177</ele>
        <time>2015-09-26T07:44:54Z</time>
      </trkpt>
      <trkpt lat="43.715801" lon="6.981651">
        <ele>446.278</ele>
        <time>2015-09-26T07:45:09Z</time>
      </trkpt>
      <trkpt lat="43.715796" lon="6.981452">
        <ele>451.209</ele>
        <time>2015-09-26T07:45:27Z</time>
      </trkpt>
      <trkpt lat="43.715811" lon="6.981266">
        <ele>459.018</ele>
        <time>2015-09-26T07:45:47Z</time>
      </trkpt>
      <trkpt lat="43.71582" lon="6.981054">
        <ele>465.938</ele>
        <time>2015-09-26T07:46:04Z</time>
      </trkpt>
      <trkpt lat="43.715777" lon="6.980759">
        <ele>468.129</ele>
        <time>2015-09-26T07:46:25Z</time>
      </trkpt>
      <trkpt lat="43.715858" lon="6.980385">
        <ele>477.149</ele>
        <time>2015-09-26T07:47:32Z</time>
      </trkpt>
      <trkpt lat="43.716134" lon="6.980124">
        <ele>489.845</ele>
        <time>2015-09-26T07:49:03Z</time>
      </trkpt>
      <trkpt lat="43.716154" lon="6.980061">
        <ele>491.791</ele>
        <time>2015-09-26T07:49:08Z</time>
      </trkpt>
      <trkpt lat="43.716134" lon="6.980124">
        <ele>489.845</ele>
        <time>2015-09-26T07:49:17Z</time>
      </trkpt>
      <trkpt lat="43.71633" lon="6.979819">
        <ele>503.693</ele>
        <time>2015-09-26T07:50:00Z</time>
      </trkpt>
      <trkpt lat="43.716379" lon="6.979667">
        <ele>507.048</ele>
        <time>2015-09-26T07:50:13Z</time>
      </trkpt>
      <trkpt lat="43.716468" lon="6.979404">
        <ele>510.919</ele>
        <time>2015-09-26T07:50:34Z</time>
      </trkpt>
      <trkpt lat="43.716573" lon="6.979202">
        <ele>512.498</ele>
        <time>2015-09-26T07:50:49Z</time>
      </trkpt>
      <trkpt lat="43.716605" lon="6.979074">
        <ele>513.682</ele>
        <time>2015-09-26T07:51:02Z</time>
      </trkpt>
      <trkpt lat="43.716605" lon="6.979074">
        <ele>513.682</ele>
        <time>2015-09-26T07:51:10Z</time>
      </trkpt>
      <trkpt lat="43.716605" lon="6.979074">
        <ele>513.682</ele>
        <time>2015-09-26T07:51:12Z</time>
      </trkpt>
      <trkpt lat="43.716701" lon="6.979198">
        <ele>519.322</ele>
        <time>2015-09-26T07:52:01Z</time>
      </trkpt>
      <trkpt lat="43.716919" lon="6.978909">
        <ele>535.486</ele>
        <time>2015-09-26T07:53:16Z</time>
      </trkpt>
      <trkpt lat="43.71697" lon="6.97884">
        <ele>537.357</ele>
        <time>2015-09-26T07:53:26Z</time>
      </trkpt>
      <trkpt lat="43.717061" lon="6.978752">
        <ele>539.737</ele>
        <time>2015-09-26T07:53:39Z</time>
      </trkpt>
      <trkpt lat="43.717073" lon="6.978599">
        <ele>540.708</ele>
        <time>2015-09-26T07:53:52Z</time>
      </trkpt>
      <trkpt lat="43.717073" lon="6.978599">
        <ele>540.708</ele>
        <time>2015-09-26T08:00:49Z</time>
      </trkpt>
      <trkpt lat="43.716967" lon="6.978992">
        <ele>550.44</ele>
        <time>2015-09-26T08:12:22Z</time>
      </trkpt>
      <trkpt lat="43.716899" lon="6.97919">
        <ele>550.36</ele>
        <time>2015-09-26T08:12:42Z</time>
      </trkpt>
      <trkpt lat="43.716871" lon="6.979602">
        <ele>549.12</ele>
        <time>2015-09-26T08:14:05Z</time>
      </trkpt>
      <trkpt lat="43.716918" lon="6.979932">
        <ele>549.124</ele>
        <time>2015-09-26T08:14:16Z</time>
      </trkpt>
      <trkpt lat="43.716842" lon="6.980059">
        <ele>549.168</ele>
        <time>2015-09-26T08:14:30Z</time>
      </trkpt>
      <trkpt lat="43.716796" lon="6.980277">
        <ele>548.812</ele>
        <time>2015-09-26T08:14:44Z</time>
      </trkpt>
      <trkpt lat="43.716829" lon="6.980443">
        <ele>547.887</ele>
        <time>2015-09-26T08:14:55Z</time>
      </trkpt>
      <trkpt lat="43.716839" lon="6.980633">
        <ele>547.598</ele>
        <time>2015-09-26T08:15:08Z</time>
      </trkpt>
      <trkpt lat="43.716921" lon="6.980893">
        <ele>547.23</ele>
        <time>2015-09-26T08:15:27Z</time>
      </trkpt>
      <trkpt lat="43.716962" lon="6.981091">
        <ele>545.442</ele>
        <time>2015-09-26T08:15:42Z</time>
      </trkpt>
      <trkpt lat="43.717034" lon="6.981298">
        <ele>545.437</ele>
        <time>2015-09-26T08:15:56Z</time>
      </trkpt>
      <trkpt lat="43.717086" lon="6.981525">
        <ele>546.442</ele>
        <time>2015-09-26T08:16:14Z</time>
      </trkpt>
      <trkpt lat="43.717127" lon="6.981646">
        <ele>546.363</ele>
        <time>2015-09-26T08:16:23Z</time>
      </trkpt>
      <trkpt lat="43.717218" lon="6.981857">
        <ele>545.728</ele>
        <time>2015-09-26T08:16:37Z</time>
      </trkpt>
      <trkpt lat="43.717287" lon="6.981983">
        <ele>545.648</ele>
        <time>2015-09-26T08:16:47Z</time>
      </trkpt>
      <trkpt lat="43.717388" lon="6.982236">
        <ele>545.171</ele>
        <time>2015-09-26T08:17:04Z</time>
      </trkpt>
      <trkpt lat="43.717474" lon="6.982352">
        <ele>545.943</ele>
        <time>2015-09-26T08:17:17Z</time>
      </trkpt>
      <trkpt lat="43.717676" lon="6.982528">
        <ele>547.273</ele>
        <time>2015-09-26T08:17:32Z</time>
      </trkpt>
      <trkpt lat="43.717807" lon="6.982634">
        <ele>547.562</ele>
        <time>2015-09-26T08:17:47Z</time>
      </trkpt>
      <trkpt lat="43.718087" lon="6.982844">
        <ele>550.016</ele>
        <time>2015-09-26T08:18:58Z</time>
      </trkpt>
      <trkpt lat="43.718244" lon="6.982992">
        <ele>552.658</ele>
        <time>2015-09-26T08:19:13Z</time>
      </trkpt>
      <trkpt lat="43.718351" lon="6.983078">
        <ele>553.215</ele>
        <time>2015-09-26T08:19:24Z</time>
      </trkpt>
      <trkpt lat="43.718499" lon="6.983181">
        <ele>552.979</ele>
        <time>2015-09-26T08:19:40Z</time>
      </trkpt>
      <trkpt lat="43.71874" lon="6.983223">
        <ele>553.292</ele>
        <time>2015-09-26T08:19:58Z</time>
      </trkpt>
      <trkpt lat="43.718887" lon="6.983219">
        <ele>553.643</ele>
        <time>2015-09-26T08:20:14Z</time>
      </trkpt>
      <trkpt lat="43.719031" lon="6.983227">
        <ele>553.903</ele>
        <time>2015-09-26T08:20:25Z</time>
      </trkpt>
      <trkpt lat="43.719666" lon="6.983105">
        <ele>567.881</ele>
        <time>2015-09-26T08:21:38Z</time>
      </trkpt>
      <trkpt lat="43.719828" lon="6.983381">
        <ele>563.275</ele>
        <time>2015-09-26T08:23:09Z</time>
      </trkpt>
      <trkpt lat="43.719843" lon="6.98362">
        <ele>561.052</ele>
        <time>2015-09-26T08:23:27Z</time>
      </trkpt>
      <trkpt lat="43.720007" lon="6.983732">
        <ele>559.546</ele>
        <time>2015-09-26T08:23:39Z</time>
      </trkpt>
      <trkpt lat="43.720104" lon="6.983801">
        <ele>559.012</ele>
        <time>2015-09-26T08:23:48Z</time>
      </trkpt>
      <trkpt lat="43.720104" lon="6.983801">
        <ele>559.012</ele>
        <time>2015-09-26T08:23:59Z</time>
      </trkpt>
      <trkpt lat="43.720104" lon="6.983801">
        <ele>559.012</ele>
        <time>2015-09-26T08:24:00Z</time>
      </trkpt>
      <trkpt lat="43.720299" lon="6.983855">
        <ele>558.777</ele>
        <time>2015-09-26T08:24:12Z</time>
      </trkpt>
      <trkpt lat="43.720417" lon="6.983876">
        <ele>559.092</ele>
        <time>2015-09-26T08:24:20Z</time>
      </trkpt>
      <trkpt lat="43.720609" lon="6.983937">
        <ele>561.045</ele>
        <time>2015-09-26T08:24:37Z</time>
      </trkpt>
      <trkpt lat="43.720739" lon="6.983978">
        <ele>561.431</ele>
        <time>2015-09-26T08:24:48Z</time>
      </trkpt>
      <trkpt lat="43.720892" lon="6.983996">
        <ele>559.919</ele>
        <time>2015-09-26T08:25:03Z</time>
      </trkpt>
      <trkpt lat="43.721024" lon="6.984068">
        <ele>559.046</ele>
        <time>2015-09-26T08:25:19Z</time>
      </trkpt>
      <trkpt lat="43.721152" lon="6.984111">
        <ele>559.261</ele>
        <time>2015-09-26T08:25:32Z</time>
      </trkpt>
      <trkpt lat="43.721223" lon="6.984214">
        <ele>558.857</ele>
        <time>2015-09-26T08:25:46Z</time>
      </trkpt>
      <trkpt lat="43.721272" lon="6.984345">
        <ele>558.267</ele>
        <time>2015-09-26T08:26:01Z</time>
      </trkpt>
      <trkpt lat="43.721268" lon="6.98438">
        <ele>557.264</ele>
        <time>2015-09-26T08:26:10Z</time>
      </trkpt>
      <trkpt lat="43.721326" lon="6.984583">
        <ele>553.959</ele>
        <time>2015-09-26T08:26:59Z</time>
      </trkpt>
      <trkpt lat="43.721577" lon="6.984755">
        <ele>553.523</ele>
        <time>2015-09-26T08:27:17Z</time>
      </trkpt>
      <trkpt lat="43.721671" lon="6.984928">
        <ele>554.239</ele>
        <time>2015-09-26T08:27:30Z</time>
      </trkpt>
      <trkpt lat="43.721735" lon="6.984911">
        <ele>553.88</ele>
        <time>2015-09-26T08:27:34Z</time>
      </trkpt>
      <trkpt lat="43.721749" lon="6.984903">
        <ele>553.826</ele>
        <time>2015-09-26T08:27:45Z</time>
      </trkpt>
      <trkpt lat="43.721829" lon="6.984754">
        <ele>552.979</ele>
        <time>2015-09-26T08:29:00Z</time>
      </trkpt>
      <trkpt lat="43.721878" lon="6.984683">
        <ele>555.286</ele>
        <time>2015-09-26T08:29:09Z</time>
      </trkpt>
      <trkpt lat="43.721971" lon="6.984662">
        <ele>557.19</ele>
        <time>2015-09-26T08:29:22Z</time>
      </trkpt>
      <trkpt lat="43.721971" lon="6.984662">
        <ele>557.19</ele>
        <time>2015-09-26T08:29:30Z</time>
      </trkpt>
      <trkpt lat="43.721971" lon="6.984662">
        <ele>557.19</ele>
        <time>2015-09-26T08:29:32Z</time>
      </trkpt>
      <trkpt lat="43.722126" lon="6.984977">
        <ele>559.631</ele>
        <time>2015-09-26T08:30:15Z</time>
      </trkpt>
      <trkpt lat="43.722126" lon="6.984977">
        <ele>559.631</ele>
        <time>2015-09-26T08:30:21Z</time>
      </trkpt>
      <trkpt lat="43.722126" lon="6.984977">
        <ele>559.631</ele>
        <time>2015-09-26T08:30:23Z</time>
      </trkpt>
      <trkpt lat="43.722245" lon="6.985094">
        <ele>552.299</ele>
        <time>2015-09-26T08:30:53Z</time>
      </trkpt>
      <trkpt lat="43.722341" lon="6.985236">
        <ele>550.168</ele>
        <time>2015-09-26T08:31:08Z</time>
      </trkpt>
      <trkpt lat="43.72238" lon="6.985337">
        <ele>550.286</ele>
        <time>2015-09-26T08:31:15Z</time>
      </trkpt>
      <trkpt lat="43.722436" lon="6.985467">
        <ele>550.464</ele>
        <time>2015-09-26T08:31:26Z</time>
      </trkpt>
      <trkpt lat="43.722453" lon="6.985535">
        <ele>549.728</ele>
        <time>2015-09-26T08:31:35Z</time>
      </trkpt>
      <trkpt lat="43.722443" lon="6.986642">
        <ele>579.776</ele>
        <time>2015-09-26T08:33:10Z</time>
      </trkpt>
      <trkpt lat="43.722443" lon="6.986642">
        <ele>579.776</ele>
        <time>2015-09-26T08:40:23Z</time>
      </trkpt>
      <trkpt lat="43.723625" lon="6.987229">
        <ele>535.066</ele>
        <time>2015-09-26T08:40:37Z</time>
      </trkpt>
      <trkpt lat="43.723625" lon="6.987229">
        <ele>535.066</ele>
        <time>2015-09-26T08:40:44Z</time>
      </trkpt>
      <trkpt lat="43.723625" lon="6.987229">
        <ele>535.066</ele>
        <time>2015-09-26T08:40:45Z</time>
      </trkpt>
      <trkpt lat="43.723818" lon="6.987417">
        <ele>546.334</ele>
        <time>2015-09-26T08:41:10Z</time>
      </trkpt>
      <trkpt lat="43.723844" lon="6.987478">
        <ele>547.392</ele>
        <time>2015-09-26T08:41:16Z</time>
      </trkpt>
      <trkpt lat="43.723868" lon="6.987617">
        <ele>547.531</ele>
        <time>2015-09-26T08:41:32Z</time>
      </trkpt>
      <trkpt lat="43.724015" lon="6.987933">
        <ele>547.195</ele>
        <time>2015-09-26T08:41:49Z</time>
      </trkpt>
      <trkpt lat="43.724144" lon="6.988038">
        <ele>550.075</ele>
        <time>2015-09-26T08:42:01Z</time>
      </trkpt>
      <trkpt lat="43.724185" lon="6.98809">
        <ele>551.082</ele>
        <time>2015-09-26T08:42:04Z</time>
      </trkpt>
      <trkpt lat="43.724197" lon="6.988101">
        <ele>551.642</ele>
        <time>2015-09-26T08:42:12Z</time>
      </trkpt>
      <trkpt lat="43.724258" lon="6.988331">
        <ele>550.408</ele>
        <time>2015-09-26T08:42:59Z</time>
      </trkpt>
      <trkpt lat="43.724222" lon="6.988509">
        <ele>548.016</ele>
        <time>2015-09-26T08:43:11Z</time>
      </trkpt>
      <trkpt lat="43.724113" lon="6.98859">
        <ele>547.069</ele>
        <time>2015-09-26T08:43:23Z</time>
      </trkpt>
      <trkpt lat="43.724065" lon="6.988667">
        <ele>546.927</ele>
        <time>2015-09-26T08:43:30Z</time>
      </trkpt>
      <trkpt lat="43.724054" lon="6.988671">
        <ele>547.912</ele>
        <time>2015-09-26T08:43:40Z</time>
      </trkpt>
      <trkpt lat="43.723992" lon="6.98887">
        <ele>551.99</ele>
        <time>2015-09-26T08:43:56Z</time>
      </trkpt>
      <trkpt lat="43.723974" lon="6.988977">
        <ele>551.809</ele>
        <time>2015-09-26T08:44:03Z</time>
      </trkpt>
      <trkpt lat="43.725128" lon="6.990337">
        <ele>552.113</ele>
        <time>2015-09-26T08:46:19Z</time>
      </trkpt>
      <trkpt lat="43.725128" lon="6.990337">
        <ele>552.113</ele>
        <time>2015-09-26T08:46:26Z</time>
      </trkpt>
      <trkpt lat="43.725128" lon="6.990337">
        <ele>552.113</ele>
        <time>2015-09-26T08:46:27Z</time>
      </trkpt>
      <trkpt lat="43.72576" lon="6.990565">
        <ele>572.852</ele>
        <time>2015-09-26T08:49:22Z</time>
      </trkpt>
      <trkpt lat="43.72576" lon="6.990565">
        <ele>572.852</ele>
        <time>2015-09-26T08:49:29Z</time>
      </trkpt>
      <trkpt lat="43.725838" lon="6.990725">
        <ele>569.934</ele>
        <time>2015-09-26T08:49:45Z</time>
      </trkpt>
      <trkpt lat="43.726599" lon="6.991125">
        <ele>549.845</ele>
        <time>2015-09-26T08:51:47Z</time>
      </trkpt>
      <trkpt lat="43.726774" lon="6.99126">
        <ele>551.983</ele>
        <time>2015-09-26T08:52:06Z</time>
      </trkpt>
      <trkpt lat="43.726851" lon="6.991335">
        <ele>552.784</ele>
        <time>2015-09-26T08:52:13Z</time>
      </trkpt>
      <trkpt lat="43.727718" lon="6.992078">
        <ele>561.757</ele>
        <time>2015-09-26T08:54:10Z</time>
      </trkpt>
      <trkpt lat="43.727718" lon="6.992078">
        <ele>561.757</ele>
        <time>2015-09-26T08:54:20Z</time>
      </trkpt>
      <trkpt lat="43.727718" lon="6.992078">
        <ele>561.757</ele>
        <time>2015-09-26T08:54:21Z</time>
      </trkpt>
      <trkpt lat="43.727926" lon="6.992588">
        <ele>560.087</ele>
        <time>2015-09-26T08:55:56Z</time>
      </trkpt>
      <trkpt lat="43.727972" lon="6.992593">
        <ele>559.915</ele>
        <time>2015-09-26T08:55:59Z</time>
      </trkpt>
      <trkpt lat="43.728059" lon="6.992601">
        <ele>558.899</ele>
        <time>2015-09-26T08:56:11Z</time>
      </trkpt>
      <trkpt lat="43.728233" lon="6.992632">
        <ele>558.241</ele>
        <time>2015-09-26T08:56:23Z</time>
      </trkpt>
      <trkpt lat="43.728304" lon="6.992685">
        <ele>557.49</ele>
        <time>2015-09-26T08:56:31Z</time>
      </trkpt>
      <trkpt lat="43.728408" lon="6.992707">
        <ele>556.743</ele>
        <time>2015-09-26T08:56:44Z</time>
      </trkpt>
      <trkpt lat="43.728575" lon="6.992897">
        <ele>555.963</ele>
        <time>2015-09-26T08:57:05Z</time>
      </trkpt>
      <trkpt lat="43.72864" lon="6.993029">
        <ele>555.151</ele>
        <time>2015-09-26T08:57:17Z</time>
      </trkpt>
      <trkpt lat="43.728842" lon="6.993042">
        <ele>554.86</ele>
        <time>2015-09-26T08:57:34Z</time>
      </trkpt>
      <trkpt lat="43.728972" lon="6.993041">
        <ele>555.23</ele>
        <time>2015-09-26T08:57:42Z</time>
      </trkpt>
      <trkpt lat="43.729115" lon="6.993109">
        <ele>556.447</ele>
        <time>2015-09-26T08:57:54Z</time>
      </trkpt>
      <trkpt lat="43.729197" lon="6.993179">
        <ele>556.47</ele>
        <time>2015-09-26T08:58:04Z</time>
      </trkpt>
      <trkpt lat="43.729239" lon="6.993199">
        <ele>556.824</ele>
        <time>2015-09-26T08:58:14Z</time>
      </trkpt>
      <trkpt lat="43.729399" lon="6.993105">
        <ele>557.071</ele>
        <time>2015-09-26T08:58:28Z</time>
      </trkpt>
      <trkpt lat="43.729527" lon="6.993053">
        <ele>557.544</ele>
        <time>2015-09-26T08:58:35Z</time>
      </trkpt>
      <trkpt lat="43.729687" lon="6.992941">
        <ele>556.992</ele>
        <time>2015-09-26T08:58:46Z</time>
      </trkpt>
      <trkpt lat="43.729808" lon="6.992841">
        <ele>555.655</ele>
        <time>2015-09-26T08:59:04Z</time>
      </trkpt>
      <trkpt lat="43.730066" lon="6.992746">
        <ele>562.661</ele>
        <time>2015-09-26T09:00:04Z</time>
      </trkpt>
      <trkpt lat="43.730115" lon="6.992874">
        <ele>563.856</ele>
        <time>2015-09-26T09:00:15Z</time>
      </trkpt>
      <trkpt lat="43.730101" lon="6.993013">
        <ele>566.352</ele>
        <time>2015-09-26T09:00:30Z</time>
      </trkpt>
      <trkpt lat="43.730111" lon="6.993091">
        <ele>566.491</ele>
        <time>2015-09-26T09:00:44Z</time>
      </trkpt>
      <trkpt lat="43.730305" lon="6.993257">
        <ele>562.95</ele>
        <time>2015-09-26T09:01:06Z</time>
      </trkpt>
      <trkpt lat="43.730809" lon="6.99345">
        <ele>554.982</ele>
        <time>2015-09-26T09:02:46Z</time>
      </trkpt>
      <trkpt lat="43.73082" lon="6.993516">
        <ele>553.954</ele>
        <time>2015-09-26T09:02:51Z</time>
      </trkpt>
      <trkpt lat="43.73084" lon="6.993581">
        <ele>553.732</ele>
        <time>2015-09-26T09:03:05Z</time>
      </trkpt>
      <trkpt lat="43.730974" lon="6.993837">
        <ele>554.669</ele>
        <time>2015-09-26T09:03:22Z</time>
      </trkpt>
      <trkpt lat="43.731092" lon="6.994027">
        <ele>556.057</ele>
        <time>2015-09-26T09:03:39Z</time>
      </trkpt>
      <trkpt lat="43.731239" lon="6.994091">
        <ele>554.939</ele>
        <time>2015-09-26T09:03:55Z</time>
      </trkpt>
      <trkpt lat="43.731342" lon="6.994212">
        <ele>555.512</ele>
        <time>2015-09-26T09:04:07Z</time>
      </trkpt>
      <trkpt lat="43.731419" lon="6.994326">
        <ele>555.252</ele>
        <time>2015-09-26T09:04:23Z</time>
      </trkpt>
      <trkpt lat="43.731528" lon="6.994471">
        <ele>554.977</ele>
        <time>2015-09-26T09:04:38Z</time>
      </trkpt>
      <trkpt lat="43.731637" lon="6.99463">
        <ele>554.375</ele>
        <time>2015-09-26T09:04:49Z</time>
      </trkpt>
      <trkpt lat="43.731691" lon="6.99472">
        <ele>554.893</ele>
        <time>2015-09-26T09:05:04Z</time>
      </trkpt>
      <trkpt lat="43.731828" lon="6.994821">



Partager le fichier

Télécharger foulon.gpx

Télécharger le fichier (100 Ko)